Time;durP1;ratioP1;P1;durP2;ratioP2;P2;SDS_P1;SDS_P2;PMS_P1;PMS_P2;Temp;Humidity;BMP_temperature;BMP_pressure;BME280_temperature;BME280_humidity;BME280_pressure;Samples;Min_cycle;Max_cycle;Signal;HPM_P1;HPM_P2
2021/07/04 00:01:56;;;;;;;93.72;59.97;;;19.20;99.90;;;;;;5017858;28;25059;-63
2021/07/04 00:04:22;;;;;;;101.00;61.67;;;19.20;99.90;;;;;;5008358;28;25093;-64
2021/07/04 00:06:47;;;;;;;108.68;64.57;;;19.10;99.90;;;;;;5006744;28;25084;-64
2021/07/04 00:09:13;;;;;;;99.82;64.20;;;19.20;99.90;;;;;;5008018;28;25084;-65
2021/07/04 00:11:39;;;;;;;85.85;58.15;;;19.10;99.90;;;;;;5009679;28;25046;-64
2021/07/04 00:14:04;;;;;;;109.32;63.45;;;19.10;99.90;;;;;;5010230;28;25083;-64
2021/07/04 00:16:31;;;;;;;99.97;61.45;;;19.10;99.90;;;;;;5012949;28;25100;-65
2021/07/04 00:18:57;;;;;;;91.63;60.55;;;19.10;99.90;;;;;;5013681;28;25083;-64
2021/07/04 00:21:22;;;;;;;103.72;62.83;;;19.20;99.90;;;;;;5001841;28;25168;-64
2021/07/04 00:23:48;;;;;;;102.60;61.92;;;19.20;99.90;;;;;;4991794;28;25088;-64
2021/07/04 00:26:14;;;;;;;100.28;62.10;;;19.10;99.90;;;;;;5005879;28;25073;-64
2021/07/04 00:28:40;;;;;;;95.63;60.35;;;19.10;99.90;;;;;;5008323;28;25087;-66
2021/07/04 00:31:06;;;;;;;98.20;60.92;;;19.10;99.90;;;;;;5009496;28;25070;-63
2021/07/04 00:33:31;;;;;;;95.82;59.95;;;19.10;99.90;;;;;;5027439;28;25139;-64
2021/07/04 00:35:57;;;;;;;91.80;61.22;;;19.10;99.90;;;;;;5011380;28;25080;-64
2021/07/04 00:38:23;;;;;;;98.30;60.58;;;19.10;99.90;;;;;;5006748;28;25060;-64
2021/07/04 00:40:49;;;;;;;105.32;62.38;;;19.10;99.90;;;;;;5007185;28;25137;-65
2021/07/04 00:43:15;;;;;;;97.75;60.85;;;19.10;99.90;;;;;;5008045;28;25129;-68
2021/07/04 00:45:41;;;;;;;101.07;60.95;;;19.00;99.90;;;;;;5011819;28;25071;-65
2021/07/04 00:48:07;;;;;;;101.20;60.85;;;19.00;99.90;;;;;;5010581;28;25082;-63
2021/07/04 00:50:33;;;;;;;91.93;60.60;;;19.00;99.90;;;;;;5008367;28;25088;-65
2021/07/04 00:53:01;;;;;;;96.50;59.78;;;19.10;99.90;;;;;;5015962;28;25105;-64
2021/07/04 00:55:27;;;;;;;85.18;57.03;;;19.10;99.90;;;;;;5007894;28;25091;-64
2021/07/04 00:57:53;;;;;;;89.70;58.88;;;19.10;99.90;;;;;;5008474;28;25115;-65
2021/07/04 01:00:22;;;;;;;81.82;57.10;;;19.10;99.90;;;;;;5006230;28;25055;-64
2021/07/04 01:02:49;;;;;;;86.65;58.45;;;19.00;99.90;;;;;;5006948;28;25097;-64
2021/07/04 01:05:18;;;;;;;91.25;58.33;;;19.00;99.90;;;;;;5007902;28;25077;-64
2021/07/04 01:07:45;;;;;;;80.32;55.13;;;19.00;99.90;;;;;;5008161;28;25050;-64
2021/07/04 01:10:14;;;;;;;87.05;55.90;;;19.00;99.90;;;;;;5008278;28;25076;-65
2021/07/04 01:12:42;;;;;;;75.80;56.30;;;19.10;99.90;;;;;;5009783;28;25074;-64
2021/07/04 01:15:08;;;;;;;79.70;55.08;;;19.00;99.90;;;;;;5013045;28;25087;-63
2021/07/04 01:17:37;;;;;;;70.90;54.25;;;19.00;99.90;;;;;;5004745;28;25099;-65
2021/07/04 01:20:09;;;;;;;78.63;53.88;;;18.90;99.90;;;;;;5004979;28;25150;-65
2021/07/04 01:22:37;;;;;;;65.15;49.65;;;18.90;99.90;;;;;;5005784;28;25143;-64
2021/07/04 01:25:04;;;;;;;65.63;49.75;;;18.80;99.90;;;;;;5005804;28;25050;-65
2021/07/04 01:27:29;;;;;;;68.80;51.03;;;18.80;99.90;;;;;;5003271;28;25065;-65
2021/07/04 01:29:55;;;;;;;74.07;50.25;;;18.60;99.90;;;;;;5009800;28;25101;-64
2021/07/04 01:32:20;;;;;;;73.35;48.70;;;18.50;99.90;;;;;;5007951;28;25090;-65
2021/07/04 01:34:46;;;;;;;63.05;47.60;;;18.30;99.90;;;;;;5007288;28;25060;-64
2021/07/04 01:37:12;;;;;;;65.68;48.40;;;18.30;99.90;;;;;;5007652;28;25114;-65
2021/07/04 01:39:37;;;;;;;65.45;48.30;;;18.40;99.90;;;;;;5007875;28;25106;-64
2021/07/04 01:42:03;;;;;;;64.85;47.42;;;18.40;99.90;;;;;;5006136;28;25079;-64
2021/07/04 01:44:28;;;;;;;68.80;48.38;;;18.40;99.90;;;;;;5008081;28;25088;-64
2021/07/04 01:46:54;;;;;;;68.75;49.45;;;18.60;99.90;;;;;;5008443;28;25147;-65
2021/07/04 01:49:20;;;;;;;61.88;46.72;;;18.60;99.90;;;;;;5004635;28;25075;-65
2021/07/04 01:51:46;;;;;;;65.03;46.75;;;18.40;99.90;;;;;;5005498;28;25126;-64
2021/07/04 01:54:11;;;;;;;62.88;47.13;;;18.30;99.90;;;;;;5013653;28;25124;-65
2021/07/04 01:56:37;;;;;;;72.63;48.10;;;18.20;99.90;;;;;;5014503;28;25072;-64
2021/07/04 01:59:03;;;;;;;63.20;47.15;;;18.20;99.90;;;;;;5015257;28;25064;-66
2021/07/04 02:01:29;;;;;;;62.40;47.30;;;18.20;99.90;;;;;;5000679;28;25104;-64
2021/07/04 02:03:54;;;;;;;68.68;47.17;;;18.10;99.90;;;;;;5014436;28;25097;-65
2021/07/04 02:06:20;;;;;;;67.85;46.10;;;18.20;99.90;;;;;;5003209;28;25106;-65
2021/07/04 02:08:45;;;;;;;67.65;47.75;;;18.20;99.90;;;;;;5010660;28;25084;-65
2021/07/04 02:11:11;;;;;;;66.47;47.15;;;18.20;99.90;;;;;;5007972;28;25096;-65
2021/07/04 02:13:36;;;;;;;67.07;47.92;;;18.20;99.90;;;;;;5006216;28;25082;-65
2021/07/04 02:16:02;;;;;;;68.18;48.97;;;18.30;99.90;;;;;;5006472;28;25103;-66
2021/07/04 02:18:28;;;;;;;73.82;48.25;;;18.30;99.90;;;;;;5005854;28;25061;-65
2021/07/04 02:20:55;;;;;;;63.35;46.58;;;18.40;99.90;;;;;;5010977;28;25082;-65
2021/07/04 02:23:27;;;;;;;59.55;45.63;;;18.20;99.90;;;;;;5012418;28;25141;-65
2021/07/04 02:25:54;;;;;;;63.47;48.58;;;18.20;99.90;;;;;;5014036;28;25077;-64
2021/07/04 02:28:22;;;;;;;59.33;47.60;;;18.30;99.90;;;;;;5006443;28;25057;-65
2021/07/04 02:30:49;;;;;;;68.53;49.10;;;18.30;99.90;;;;;;5013212;28;25056;-64
2021/07/04 02:33:16;;;;;;;62.00;47.13;;;18.10;99.90;;;;;;5011357;28;25116;-64
2021/07/04 02:35:45;;;;;;;66.75;47.28;;;18.00;99.90;;;;;;5013262;28;25118;-65
2021/07/04 02:38:11;;;;;;;59.28;45.33;;;18.10;99.90;;;;;;5011656;28;25141;-63
2021/07/04 02:40:38;;;;;;;63.97;47.30;;;18.00;99.90;;;;;;5014097;28;25116;-65
2021/07/04 02:43:05;;;;;;;61.20;45.40;;;18.00;99.90;;;;;;5004668;28;25073;-65
2021/07/04 02:45:31;;;;;;;66.85;48.33;;;18.00;99.90;;;;;;5006052;28;25074;-65
2021/07/04 02:47:57;;;;;;;67.82;47.33;;;17.90;99.90;;;;;;5001031;28;25076;-67
2021/07/04 02:50:22;;;;;;;55.47;46.65;;;18.00;99.90;;;;;;5011405;28;25098;-64
2021/07/04 02:52:50;;;;;;;67.47;47.05;;;18.00;99.90;;;;;;5006380;28;25126;-64
2021/07/04 02:55:15;;;;;;;61.95;47.30;;;18.10;99.90;;;;;;5011634;28;25078;-65
2021/07/04 02:57:41;;;;;;;61.70;48.60;;;18.10;99.90;;;;;;4999433;28;25070;-65
2021/07/04 03:00:10;;;;;;;59.83;46.90;;;18.10;99.90;;;;;;4999335;28;25080;-65
2021/07/04 03:02:36;;;;;;;60.80;46.42;;;18.10;99.90;;;;;;5002459;28;25153;-65
2021/07/04 03:05:02;;;;;;;61.58;47.00;;;18.00;99.90;;;;;;5010107;28;25133;-64
2021/07/04 03:07:28;;;;;;;58.33;46.60;;;18.00;99.90;;;;;;5006309;28;25140;-64
2021/07/04 03:09:53;;;;;;;63.47;47.67;;;18.10;99.90;;;;;;5000491;28;25070;-65
2021/07/04 03:12:19;;;;;;;62.80;48.05;;;18.00;99.90;;;;;;5010975;28;25099;-65
2021/07/04 03:14:44;;;;;;;69.95;50.00;;;18.10;99.90;;;;;;5014175;28;25088;-66
2021/07/04 03:17:10;;;;;;;60.53;47.60;;;18.20;99.90;;;;;;5012759;28;25056;-64
2021/07/04 03:19:35;;;;;;;67.47;49.10;;;18.20;99.90;;;;;;5010575;28;25060;-65
2021/07/04 03:22:01;;;;;;;69.15;47.90;;;18.30;99.90;;;;;;5010707;28;25062;-65
2021/07/04 03:24:27;;;;;;;69.47;49.30;;;18.20;99.90;;;;;;5004725;28;25059;-65
2021/07/04 03:26:54;;;;;;;66.85;48.15;;;18.20;99.90;;;;;;5007464;28;25145;-70
2021/07/04 03:29:20;;;;;;;70.43;51.83;;;18.10;99.90;;;;;;5008510;28;25068;-65
2021/07/04 03:31:45;;;;;;;67.65;50.50;;;18.20;99.90;;;;;;5008282;28;25120;-66
2021/07/04 03:34:11;;;;;;;67.05;49.80;;;18.10;99.90;;;;;;5010108;28;25121;-65
2021/07/04 03:36:37;;;;;;;67.40;49.03;;;18.10;99.90;;;;;;5042754;22;25145;-63
2021/07/04 03:39:04;;;;;;;76.55;49.75;;;18.00;99.90;;;;;;5045871;28;25058;-63
2021/07/04 03:41:30;;;;;;;79.55;50.85;;;18.00;99.90;;;;;;5051644;28;25081;-63
2021/07/04 03:43:59;;;;;;;84.10;49.38;;;17.90;99.90;;;;;;5051378;28;25093;-63
2021/07/04 03:46:25;;;;;;;76.50;50.22;;;17.80;99.90;;;;;;5038801;28;25072;-64
2021/07/04 03:48:50;;;;;;;79.32;49.78;;;17.70;99.90;;;;;;5028353;28;25090;-64
2021/07/04 03:51:16;;;;;;;73.85;48.20;;;17.80;99.90;;;;;;5028683;28;25135;-63
2021/07/04 03:53:41;;;;;;;69.70;49.08;;;17.70;99.90;;;;;;5028634;28;25111;-64
2021/07/04 03:56:07;;;;;;;80.07;49.97;;;17.70;99.90;;;;;;5028125;28;25063;-63
2021/07/04 03:58:33;;;;;;;72.28;47.90;;;17.70;99.90;;;;;;5026269;28;25053;-63
2021/07/04 04:00:58;;;;;;;68.05;47.50;;;17.70;99.90;;;;;;5025925;28;25078;-63
2021/07/04 04:03:24;;;;;;;74.47;48.28;;;17.60;99.90;;;;;;5029273;28;25066;-64
2021/07/04 04:05:49;;;;;;;78.88;50.78;;;17.60;99.90;;;;;;5025010;28;25104;-63
2021/07/04 04:08:15;;;;;;;75.63;49.35;;;17.60;99.90;;;;;;5025645;28;25061;-63
2021/07/04 04:10:40;;;;;;;69.55;47.58;;;17.60;99.90;;;;;;5027208;28;25053;-63
2021/07/04 04:13:06;;;;;;;70.95;48.60;;;17.80;99.90;;;;;;5027401;28;25139;-63
2021/07/04 04:15:31;;;;;;;69.80;48.10;;;17.80;99.90;;;;;;5027729;28;25082;-64
2021/07/04 04:17:58;;;;;;;73.90;49.65;;;17.90;99.90;;;;;;5024965;28;25155;-63
2021/07/04 04:20:24;;;;;;;71.28;48.03;;;17.90;99.90;;;;;;5028270;28;25082;-63
2021/07/04 04:22:50;;;;;;;78.07;49.97;;;17.80;99.90;;;;;;5025440;28;25064;-63
2021/07/04 04:25:15;;;;;;;82.63;48.97;;;17.80;99.90;;;;;;5027009;28;25074;-63
2021/07/04 04:27:41;;;;;;;82.35;48.85;;;17.70;99.90;;;;;;5027032;28;25061;-63
2021/07/04 04:30:07;;;;;;;72.82;46.45;;;17.70;99.90;;;;;;5028867;28;25116;-63
2021/07/04 04:32:33;;;;;;;76.55;49.08;;;17.70;99.90;;;;;;5028126;28;25147;-63
2021/07/04 04:34:59;;;;;;;84.30;48.50;;;17.60;99.90;;;;;;5028063;28;25149;-62
2021/07/04 04:37:24;;;;;;;81.25;48.75;;;17.50;99.90;;;;;;5027387;28;25129;-62
2021/07/04 04:39:50;;;;;;;80.68;50.65;;;17.50;99.90;;;;;;5027850;28;25134;-65
2021/07/04 04:42:15;;;;;;;82.15;49.00;;;17.50;99.90;;;;;;5029506;28;25124;-63
2021/07/04 04:44:41;;;;;;;72.50;45.92;;;17.50;99.90;;;;;;5029359;28;25086;-63
2021/07/04 04:47:07;;;;;;;83.00;48.80;;;17.50;99.90;;;;;;5029123;28;25081;-63
2021/07/04 04:49:34;;;;;;;87.57;53.17;;;17.50;99.90;;;;;;5027508;28;25079;-63
2021/07/04 04:51:59;;;;;;;75.72;50.08;;;17.50;99.90;;;;;;5024802;28;25077;-63
2021/07/04 04:54:25;;;;;;;76.10;48.45;;;17.50;99.90;;;;;;5021871;28;25142;-63
2021/07/04 04:56:50;;;;;;;64.68;45.47;;;17.60;99.90;;;;;;5013770;28;25079;-62
2021/07/04 04:59:16;;;;;;;76.25;47.35;;;17.60;99.90;;;;;;5026086;28;25061;-63
2021/07/04 05:01:41;;;;;;;71.63;46.47;;;17.70;99.90;;;;;;5028609;28;25069;-63
2021/07/04 05:04:09;;;;;;;72.97;47.15;;;17.70;99.90;;;;;;5023380;28;25136;-63
2021/07/04 05:06:35;;;;;;;70.38;46.63;;;17.70;99.90;;;;;;5013937;28;25064;-64
2021/07/04 05:09:01;;;;;;;74.50;48.97;;;17.70;99.90;;;;;;5029753;28;25062;-63
2021/07/04 05:11:26;;;;;;;72.57;49.83;;;17.80;99.90;;;;;;5029547;28;24957;-64
2021/07/04 05:13:52;;;;;;;73.15;48.05;;;17.90;99.90;;;;;;5031629;28;25127;-65
2021/07/04 05:16:17;;;;;;;77.60;50.30;;;17.90;99.90;;;;;;5036432;28;25073;-64
2021/07/04 05:18:43;;;;;;;69.68;47.90;;;17.90;99.90;;;;;;5027778;28;25069;-63
2021/07/04 05:21:09;;;;;;;73.13;48.22;;;17.90;99.90;;;;;;5025533;28;25130;-63
2021/07/04 05:23:34;;;;;;;73.38;48.10;;;17.90;99.90;;;;;;5028066;28;25068;-64
2021/07/04 05:26:00;;;;;;;72.47;46.65;;;17.90;99.90;;;;;;5026834;28;25141;-63
2021/07/04 05:28:26;;;;;;;73.68;48.10;;;17.90;99.90;;;;;;5024674;28;25057;-65
2021/07/04 05:30:52;;;;;;;65.78;47.30;;;17.90;99.90;;;;;;5027379;28;25064;-63
2021/07/04 05:33:17;;;;;;;78.13;49.28;;;18.00;99.90;;;;;;5024074;28;25064;-64
2021/07/04 05:35:43;;;;;;;76.20;48.65;;;18.10;99.90;;;;;;5012584;28;25054;-64
2021/07/04 05:38:19;;;;;;;81.57;50.55;;;18.20;99.90;;;;;;5008582;28;25125;-63
2021/07/04 05:40:49;;;;;;;80.75;47.58;;;18.20;99.90;;;;;;5019617;28;25062;-64
2021/07/04 05:43:15;;;;;;;89.88;50.20;;;18.20;99.90;;;;;;5015211;28;25084;-63
2021/07/04 05:45:41;;;;;;;75.25;47.45;;;18.10;99.90;;;;;;5015331;28;25081;-64
2021/07/04 05:48:07;;;;;;;72.78;46.80;;;18.20;99.90;;;;;;5013582;28;25149;-65
2021/07/04 05:50:32;;;;;;;67.63;45.50;;;18.10;99.90;;;;;;5016052;28;25055;-63
2021/07/04 05:52:58;;;;;;;82.72;48.17;;;18.20;99.90;;;;;;5009891;28;25089;-64
2021/07/04 05:55:23;;;;;;;81.32;46.42;;;18.30;99.90;;;;;;5012666;28;25076;-66
2021/07/04 05:57:49;;;;;;;61.80;41.33;;;18.40;99.90;;;;;;5008414;28;25060;-66
2021/07/04 06:00:16;;;;;;;65.32;43.30;;;18.40;99.90;;;;;;5025738;28;25090;-63
2021/07/04 06:02:42;;;;;;;63.17;41.92;;;18.40;99.90;;;;;;5038563;28;25073;-64
2021/07/04 06:05:08;;;;;;;61.05;41.40;;;18.50;99.90;;;;;;5027522;28;25067;-64
2021/07/04 06:07:34;;;;;;;47.72;31.02;;;18.70;99.90;;;;;;5026878;28;25072;-63
2021/07/04 06:10:00;;;;;;;48.20;32.22;;;18.60;99.90;;;;;;5018628;28;25161;-63
2021/07/04 06:12:26;;;;;;;42.63;29.08;;;18.60;99.90;;;;;;5027640;28;25082;-65
2021/07/04 06:14:52;;;;;;;45.40;29.90;;;18.80;99.90;;;;;;5013942;28;25100;-64
2021/07/04 06:17:17;;;;;;;41.10;25.98;;;19.10;99.90;;;;;;5025592;28;25088;-62
2021/07/04 06:19:43;;;;;;;40.38;25.52;;;19.20;99.90;;;;;;5024058;28;25099;-63
2021/07/04 06:22:08;;;;;;;34.30;23.30;;;19.30;99.90;;;;;;5027415;28;25055;-64
2021/07/04 06:24:34;;;;;;;31.75;20.92;;;19.60;99.90;;;;;;5027906;28;25075;-62
2021/07/04 06:26:59;;;;;;;31.23;20.80;;;19.60;99.90;;;;;;5027149;28;25057;-64
2021/07/04 06:29:25;;;;;;;29.92;21.75;;;19.80;99.90;;;;;;5023787;28;25056;-63
2021/07/04 06:31:51;;;;;;;34.97;21.65;;;19.90;99.90;;;;;;5029256;28;25061;-63
2021/07/04 06:34:16;;;;;;;34.00;22.77;;;19.80;99.90;;;;;;5025402;28;25067;-62
2021/07/04 06:36:42;;;;;;;33.40;19.65;;;19.90;99.90;;;;;;5028669;28;25092;-63
2021/07/04 06:39:07;;;;;;;27.05;18.15;;;20.00;99.90;;;;;;5023731;28;25064;-62
2021/07/04 06:41:33;;;;;;;27.23;18.33;;;19.90;99.90;;;;;;5021665;28;25050;-62
2021/07/04 06:44:00;;;;;;;27.40;17.85;;;19.90;99.90;;;;;;5028268;28;25064;-63
2021/07/04 06:46:26;;;;;;;24.42;18.10;;;20.10;99.90;;;;;;5019454;28;25074;-64
2021/07/04 06:48:51;;;;;;;21.75;16.63;;;20.30;99.90;;;;;;5019490;28;25076;-64
2021/07/04 06:51:17;;;;;;;22.77;14.90;;;20.30;99.90;;;;;;5019181;28;25052;-64
2021/07/04 06:53:43;;;;;;;17.73;13.20;;;20.50;99.90;;;;;;5018030;28;25106;-64
2021/07/04 06:56:10;;;;;;;20.70;12.68;;;20.60;99.90;;;;;;5031169;28;25105;-63
2021/07/04 06:58:36;;;;;;;18.80;12.93;;;20.70;99.90;;;;;;5026199;28;25079;-64
2021/07/04 07:01:03;;;;;;;20.35;13.07;;;20.30;99.90;;;;;;5013744;28;25067;-64
2021/07/04 07:03:28;;;;;;;16.45;12.15;;;20.10;99.90;;;;;;5020402;28;25063;-64
2021/07/04 07:05:54;;;;;;;15.05;11.55;;;20.00;99.90;;;;;;5022265;28;25067;-63
2021/07/04 07:08:20;;;;;;;16.88;12.65;;;19.90;99.90;;;;;;5018265;28;25062;-62
2021/07/04 07:10:45;;;;;;;12.20;10.52;;;20.10;99.90;;;;;;5024633;28;25091;-63
2021/07/04 07:13:11;;;;;;;14.73;10.63;;;20.10;99.90;;;;;;5017338;28;25113;-64
2021/07/04 07:15:36;;;;;;;10.10;8.52;;;20.10;99.90;;;;;;5011690;28;25102;-63
2021/07/04 07:18:03;;;;;;;12.82;8.10;;;20.50;99.90;;;;;;5013380;28;25083;-63
2021/07/04 07:20:29;;;;;;;8.82;7.07;;;20.60;99.90;;;;;;5020126;28;25130;-66
2021/07/04 07:22:54;;;;;;;10.30;8.40;;;20.60;99.90;;;;;;5012970;28;25061;-62
2021/07/04 07:25:20;;;;;;;8.85;7.53;;;20.70;99.90;;;;;;5011989;28;25055;-64
2021/07/04 07:27:46;;;;;;;7.15;6.05;;;20.90;99.90;;;;;;5014908;28;25143;-63
2021/07/04 07:30:13;;;;;;;8.05;6.82;;;20.90;99.90;;;;;;5012135;28;25117;-64
2021/07/04 07:32:39;;;;;;;11.00;7.03;;;20.70;99.90;;;;;;5021049;28;25093;-63
2021/07/04 07:35:09;;;;;;;7.63;6.05;;;20.60;99.90;;;;;;5028311;28;25126;-64
2021/07/04 07:37:35;;;;;;;7.97;7.18;;;20.70;99.90;;;;;;5024616;28;25149;-63
2021/07/04 07:40:02;;;;;;;5.25;4.78;;;20.80;99.90;;;;;;5029954;28;25096;-62
2021/07/04 07:42:27;;;;;;;8.88;5.55;;;20.60;99.90;;;;;;5021610;28;25080;-63
2021/07/04 07:44:53;;;;;;;9.10;6.43;;;20.50;99.90;;;;;;5017806;28;25060;-63
2021/07/04 07:47:19;;;;;;;12.10;7.22;;;20.30;99.90;;;;;;5026086;28;25057;-62
2021/07/04 07:49:44;;;;;;;9.88;6.93;;;20.30;99.90;;;;;;5019576;28;25139;-62
2021/07/04 07:52:10;;;;;;;7.35;6.57;;;20.20;99.90;;;;;;5012994;28;25143;-63
2021/07/04 07:54:36;;;;;;;8.73;7.07;;;20.30;99.90;;;;;;5011368;28;25150;-63
2021/07/04 07:57:02;;;;;;;9.93;7.85;;;20.10;99.90;;;;;;5013833;28;25046;-62
2021/07/04 07:59:31;;;;;;;7.43;6.32;;;20.30;99.90;;;;;;5028279;28;25131;-63
2021/07/04 08:01:57;;;;;;;7.25;6.00;;;20.30;99.90;;;;;;5013504;28;25072;-64
2021/07/04 08:04:24;;;;;;;5.90;4.65;;;20.30;99.90;;;;;;5010739;28;25166;-62
2021/07/04 08:06:49;;;;;;;5.78;5.10;;;20.30;99.90;;;;;;5014461;28;25147;-63
2021/07/04 08:09:15;;;;;;;5.88;5.38;;;20.50;99.90;;;;;;5013779;28;25064;-62
2021/07/04 08:11:41;;;;;;;5.13;4.63;;;20.60;99.90;;;;;;5016456;28;25053;-63
2021/07/04 08:14:06;;;;;;;7.93;4.80;;;20.70;99.90;;;;;;5010599;28;25122;-62
2021/07/04 08:16:32;;;;;;;5.30;4.80;;;20.80;99.90;;;;;;5012462;28;25140;-62
2021/07/04 08:18:58;;;;;;;5.88;4.90;;;20.70;99.90;;;;;;5024525;28;25103;-63
2021/07/04 08:21:23;;;;;;;5.57;4.97;;;20.70;99.90;;;;;;5013469;28;25056;-64
2021/07/04 08:23:49;;;;;;;5.20;4.65;;;20.70;99.90;;;;;;5016226;28;25078;-63
2021/07/04 08:26:16;;;;;;;6.35;4.88;;;20.90;99.90;;;;;;5020189;28;25066;-62
2021/07/04 08:28:41;;;;;;;5.97;4.70;;;20.60;99.90;;;;;;5016783;28;25050;-63
2021/07/04 08:31:07;;;;;;;4.18;3.78;;;20.60;99.90;;;;;;5011719;28;25134;-63
2021/07/04 08:33:33;;;;;;;4.93;4.07;;;20.40;99.90;;;;;;5013906;28;25089;-62
2021/07/04 08:35:58;;;;;;;4.15;3.60;;;20.40;99.90;;;;;;5010439;28;25072;-64
2021/07/04 08:38:24;;;;;;;3.72;2.63;;;20.70;99.90;;;;;;5023529;28;25080;-65
2021/07/04 08:40:50;;;;;;;2.85;2.28;;;20.80;99.90;;;;;;5014082;28;25059;-63
2021/07/04 08:43:26;;;;;;;2.90;2.58;;;20.70;99.90;;;;;;5014551;28;25066;-63
2021/07/04 08:45:52;;;;;;;3.20;2.78;;;20.60;99.90;;;;;;5013333;28;25069;-63
2021/07/04 08:48:18;;;;;;;2.38;2.22;;;20.80;99.90;;;;;;5013797;28;25075;-60
2021/07/04 08:50:43;;;;;;;3.10;2.25;;;20.70;99.90;;;;;;5014169;28;25137;-63
2021/07/04 08:53:09;;;;;;;3.53;2.45;;;21.00;99.90;;;;;;5017581;28;25132;-64
2021/07/04 08:55:34;;;;;;;2.83;2.60;;;21.20;99.90;;;;;;5019963;28;25077;-64
2021/07/04 08:58:00;;;;;;;2.38;2.17;;;21.30;99.90;;;;;;5022600;28;25055;-64
2021/07/04 09:00:26;;;;;;;2.60;2.40;;;21.20;99.90;;;;;;5020401;28;25075;-64
2021/07/04 09:02:53;;;;;;;1.88;1.77;;;21.30;99.90;;;;;;5026153;28;25133;-63
2021/07/04 09:05:19;;;;;;;2.53;1.60;;;21.10;99.90;;;;;;5027881;28;25075;-62
2021/07/04 09:07:45;;;;;;;1.55;1.45;;;21.00;99.90;;;;;;5012773;28;25069;-63
2021/07/04 09:10:17;;;;;;;6.57;1.52;;;21.10;99.90;;;;;;5012170;28;25072;-63
2021/07/04 09:12:48;;;;;;;2.78;2.17;;;21.30;99.90;;;;;;5010012;28;25152;-62
2021/07/04 09:15:24;;;;;;;3.22;2.40;;;21.40;99.90;;;;;;5014306;28;25122;-62
2021/07/04 09:17:59;;;;;;;4.25;2.50;;;21.60;99.90;;;;;;5021523;28;25083;-63
2021/07/04 09:20:30;;;;;;;2.65;2.45;;;21.50;99.90;;;;;;5026550;28;25097;-63
2021/07/04 09:22:58;;;;;;;3.03;2.50;;;21.60;99.90;;;;;;5023298;28;25104;-63
2021/07/04 09:25:26;;;;;;;3.97;2.75;;;21.80;99.90;;;;;;5022039;28;25223;-63
2021/07/04 09:28:13;;;;;;;5.35;2.92;;;21.90;99.90;;;;;;5019258;28;25085;-64
2021/07/04 09:30:40;;;;;;;6.13;2.88;;;21.50;99.90;;;;;;5023840;28;25064;-64
2021/07/04 09:33:15;;;;;;;3.90;2.75;;;21.30;99.90;;;;;;5022564;28;25076;-63
2021/07/04 09:35:57;;;;;;;2.88;2.67;;;21.20;99.90;;;;;;5037358;22;25045;-69
2021/07/04 09:38:28;;;;;;;2.78;2.47;;;21.20;99.90;;;;;;5023441;28;25077;-66
2021/07/04 09:40:54;;;;;;;3.03;2.70;;;21.30;99.90;;;;;;5007728;28;25068;-66
2021/07/04 09:43:20;;;;;;;3.13;2.80;;;21.40;99.90;;;;;;5008531;28;25074;-66
2021/07/04 09:45:53;;;;;;;2.33;2.22;;;21.40;99.90;;;;;;5007835;28;25082;-67
2021/07/04 09:48:20;;;;;;;3.00;2.22;;;21.50;99.90;;;;;;5002395;28;25071;-67
2021/07/04 09:50:51;;;;;;;3.20;2.22;;;21.60;99.90;;;;;;5011053;28;25074;-66
2021/07/04 09:53:19;;;;;;;2.50;2.27;;;21.70;99.90;;;;;;5012746;28;25153;-65
2021/07/04 09:55:45;;;;;;;4.38;2.55;;;21.90;99.90;;;;;;5007264;28;25137;-66
2021/07/04 09:58:12;;;;;;;3.30;2.03;;;21.80;99.90;;;;;;5006523;28;25047;-65
2021/07/04 10:00:41;;;;;;;4.20;1.98;;;21.80;99.90;;;;;;5008086;28;25111;-65
2021/07/04 10:03:12;;;;;;;2.63;2.22;;;21.70;99.90;;;;;;5008398;28;25097;-66
2021/07/04 10:05:40;;;;;;;4.55;2.28;;;21.90;99.90;;;;;;5007473;28;25078;-66
2021/07/04 10:08:22;;;;;;;5.00;2.30;;;22.00;99.90;;;;;;5007922;28;25088;-67
2021/07/04 10:10:49;;;;;;;4.10;2.05;;;22.00;99.90;;;;;;5007870;28;25153;-64
2021/07/04 10:13:15;;;;;;;1.60;1.48;;;21.80;99.90;;;;;;5007523;28;25065;-64
2021/07/04 10:15:41;;;;;;;2.03;1.48;;;21.50;99.90;;;;;;5013399;28;25064;-66
2021/07/04 10:18:09;;;;;;;2.30;1.77;;;21.40;99.90;;;;;;5013104;28;25114;-65
2021/07/04 10:20:39;;;;;;;3.00;1.77;;;21.50;99.90;;;;;;5011792;28;25059;-66
2021/07/04 10:23:10;;;;;;;1.98;1.88;;;21.70;99.90;;;;;;5012907;28;25073;-66
2021/07/04 10:25:35;;;;;;;4.03;1.80;;;21.70;99.90;;;;;;5010552;28;25081;-66
2021/07/04 10:28:03;;;;;;;2.15;1.90;;;21.60;99.90;;;;;;5010824;28;25134;-67
2021/07/04 10:30:32;;;;;;;3.80;1.88;;;21.40;99.90;;;;;;5013105;28;25170;-66
2021/07/04 10:33:06;;;;;;;2.70;2.05;;;21.70;99.90;;;;;;5012273;28;25062;-67
2021/07/04 10:35:32;;;;;;;2.85;2.53;;;22.00;99.90;;;;;;5011271;28;25080;-68
2021/07/04 10:38:14;;;;;;;5.35;2.55;;;22.20;99.90;;;;;;5012415;28;25060;-66
2021/07/04 10:40:40;;;;;;;8.73;3.20;;;22.00;99.90;;;;;;5002789;28;25070;-66
2021/07/04 10:43:06;;;;;;;6.00;2.90;;;21.70;99.90;;;;;;5012659;28;25106;-67
2021/07/04 10:45:41;;;;;;;3.80;2.28;;;21.60;99.90;;;;;;5011325;28;25102;-67
2021/07/04 10:48:21;;;;;;;2.47;2.22;;;21.60;99.90;;;;;;5011823;28;25056;-66
2021/07/04 10:51:07;;;;;;;2.10;1.92;;;21.40;99.90;;;;;;5010832;28;25053;-67
2021/07/04 10:53:45;;;;;;;5.93;2.60;;;21.40;99.90;;;;;;5012171;28;25171;-66
2021/07/04 10:56:33;;;;;;;6.50;2.20;;;21.60;99.90;;;;;;5009360;28;25054;-68
2021/07/04 10:59:10;;;;;;;2.15;2.05;;;21.80;99.90;;;;;;5010837;28;25071;-67
2021/07/04 11:02:00;;;;;;;2.88;2.47;;;21.80;99.90;;;;;;5021484;28;25074;-67
2021/07/04 11:04:31;;;;;;;3.05;2.25;;;21.90;99.90;;;;;;5014449;28;25081;-72
2021/07/04 11:07:04;;;;;;;2.22;2.03;;;22.00;99.90;;;;;;5009561;28;25063;-67
2021/07/04 11:09:51;;;;;;;2.42;2.22;;;22.20;99.90;;;;;;5015935;28;25094;-68
2021/07/04 11:12:42;;;;;;;4.50;2.42;;;22.20;99.90;;;;;;5020863;28;25067;-68
2021/07/04 11:15:11;;;;;;;3.10;2.10;;;22.40;99.90;;;;;;5009062;28;25054;-68
2021/07/04 11:17:55;;;;;;;2.30;2.13;;;22.70;99.90;;;;;;5017367;28;25093;-68
2021/07/04 11:20:25;;;;;;;2.63;1.92;;;22.60;99.90;;;;;;5015546;28;25090;-67
2021/07/04 11:23:03;;;;;;;2.42;2.15;;;22.30;99.90;;;;;;5008863;28;25082;-67
2021/07/04 11:25:41;;;;;;;2.28;2.08;;;22.30;99.90;;;;;;5015831;28;25097;-68
2021/07/04 11:28:16;;;;;;;2.60;2.03;;;22.10;99.90;;;;;;5006708;28;25136;-66
2021/07/04 11:30:46;;;;;;;3.67;2.33;;;22.20;99.90;;;;;;5011450;28;25121;-66
2021/07/04 11:33:20;;;;;;;2.58;1.70;;;22.00;99.90;;;;;;5011841;28;25099;-66
2021/07/04 11:35:46;;;;;;;2.30;2.10;;;22.00;99.90;;;;;;5017018;28;25057;-67
2021/07/04 11:38:20;;;;;;;4.28;1.98;;;21.80;99.90;;;;;;5014441;28;25085;-66
2021/07/04 11:40:47;;;;;;;3.45;2.10;;;21.60;99.90;;;;;;5011821;28;25100;-67
2021/07/04 11:43:17;;;;;;;2.67;2.08;;;21.90;99.90;;;;;;5011333;28;25073;-67
2021/07/04 11:45:50;;;;;;;5.05;2.25;;;21.80;99.90;;;;;;5015068;28;25068;-69
2021/07/04 11:48:16;;;;;;;2.13;1.85;;;22.10;99.90;;;;;;5024668;28;25083;-67
2021/07/04 11:50:50;;;;;;;2.17;1.80;;;22.40;99.90;;;;;;5010691;28;25050;-67
2021/07/04 11:53:16;;;;;;;2.72;1.77;;;22.50;99.90;;;;;;5009683;28;25148;-67
2021/07/04 11:56:00;;;;;;;2.85;2.30;;;22.60;99.90;;;;;;5009384;28;25071;-68
2021/07/04 11:58:28;;;;;;;1.98;1.33;;;22.70;99.90;;;;;;5004483;28;25068;-67
2021/07/04 12:00:53;;;;;;;1.95;1.80;;;22.80;99.90;;;;;;5009393;28;25146;-67
2021/07/04 12:03:24;;;;;;;2.33;1.70;;;22.80;99.90;;;;;;5009187;28;25062;-67
2021/07/04 12:05:51;;;;;;;3.00;1.75;;;22.60;99.90;;;;;;5009882;28;25097;-66
2021/07/04 12:08:17;;;;;;;3.45;1.98;;;22.20;99.90;;;;;;5008808;28;25054;-66
2021/07/04 12:10:50;;;;;;;1.65;1.52;;;22.00;99.90;;;;;;5010679;28;25079;-67
2021/07/04 12:13:16;;;;;;;2.33;1.45;;;22.10;99.90;;;;;;5002030;28;25055;-66
2021/07/04 12:15:47;;;;;;;2.97;1.80;;;22.20;99.90;;;;;;5018792;28;25123;-67
2021/07/04 12:18:16;;;;;;;2.13;1.70;;;21.90;99.90;;;;;;5009104;28;25147;-66
2021/07/04 12:20:51;;;;;;;3.88;1.70;;;21.90;99.90;;;;;;5009764;28;25057;-66
2021/07/04 12:23:16;;;;;;;1.75;1.65;;;21.80;99.90;;;;;;5009975;28;25149;-66
2021/07/04 12:25:42;;;;;;;2.55;1.40;;;21.60;99.90;;;;;;5009776;28;25078;-67
2021/07/04 12:28:13;;;;;;;1.48;1.33;;;21.70;99.90;;;;;;5008096;28;25021;-67
2021/07/04 12:30:40;;;;;;;4.00;1.60;;;22.00;99.90;;;;;;5009289;28;25164;-67
2021/07/04 12:33:07;;;;;;;3.33;1.85;;;22.10;99.90;;;;;;5009616;28;25134;-66
2021/07/04 12:35:48;;;;;;;2.33;1.63;;;22.10;99.90;;;;;;5010902;28;25117;-66
2021/07/04 12:38:18;;;;;;;1.98;1.65;;;21.70;99.90;;;;;;5003907;28;25061;-67